sensor_id;sensor_type;location;lat;lon;timestamp;pressure;altitude;pressure_sealevel;temperature;humidity
33153;BME280;19509;43.862;26.176;2022-08-21T00:00:40;100038.06;;;23.99;56.76
33153;BME280;19509;43.862;26.176;2022-08-21T00:03:08;100045.34;;;24.04;56.77
33153;BME280;19509;43.862;26.176;2022-08-21T00:05:38;100052.41;;;23.96;56.87
33153;BME280;19509;43.862;26.176;2022-08-21T00:08:04;100048.00;;;23.87;56.94
33153;BME280;19509;43.862;26.176;2022-08-21T00:10:29;100049.94;;;23.86;56.85
33153;BME280;19509;43.862;26.176;2022-08-21T00:12:55;100046.38;;;23.86;56.74
33153;BME280;19509;43.862;26.176;2022-08-21T00:15:24;100041.31;;;23.79;56.86
33153;BME280;19509;43.862;26.176;2022-08-21T00:17:52;100051.16;;;23.80;56.86
33153;BME280;19509;43.862;26.176;2022-08-21T00:20:19;100050.88;;;23.81;56.78
33153;BME280;19509;43.862;26.176;2022-08-21T00:22:45;100050.72;;;23.87;56.92
33153;BME280;19509;43.862;26.176;2022-08-21T00:25:12;100048.31;;;23.85;57.47
33153;BME280;19509;43.862;26.176;2022-08-21T00:27:37;100057.66;;;23.84;57.49
33153;BME280;19509;43.862;26.176;2022-08-21T00:30:06;100060.28;;;23.89;57.93
33153;BME280;19509;43.862;26.176;2022-08-21T00:32:32;100052.25;;;23.93;57.97
33153;BME280;19509;43.862;26.176;2022-08-21T00:34:58;100049.16;;;23.94;58.12
33153;BME280;19509;43.862;26.176;2022-08-21T00:37:24;100045.94;;;23.92;58.67
33153;BME280;19509;43.862;26.176;2022-08-21T00:39:49;100038.31;;;23.89;58.94
33153;BME280;19509;43.862;26.176;2022-08-21T00:42:15;100045.31;;;23.95;58.86
33153;BME280;19509;43.862;26.176;2022-08-21T00:44:43;100047.13;;;24.00;58.93
33153;BME280;19509;43.862;26.176;2022-08-21T00:47:10;100046.31;;;23.99;58.96
33153;BME280;19509;43.862;26.176;2022-08-21T00:49:36;100052.41;;;23.96;59.19
33153;BME280;19509;43.862;26.176;2022-08-21T00:52:03;100051.72;;;23.91;59.50
33153;BME280;19509;43.862;26.176;2022-08-21T00:54:31;100040.88;;;23.86;59.86
33153;BME280;19509;43.862;26.176;2022-08-21T00:57:02;100039.00;;;23.95;59.71
33153;BME280;19509;43.862;26.176;2022-08-21T00:59:33;100050.28;;;23.93;59.99
33153;BME280;19509;43.862;26.176;2022-08-21T01:02:00;100040.38;;;23.83;60.26
33153;BME280;19509;43.862;26.176;2022-08-21T01:04:26;100052.47;;;23.82;60.33
33153;BME280;19509;43.862;26.176;2022-08-21T01:06:52;100042.91;;;23.80;60.75
33153;BME280;19509;43.862;26.176;2022-08-21T01:09:18;100044.69;;;23.76;60.85
33153;BME280;19509;43.862;26.176;2022-08-21T01:11:44;100037.25;;;23.76;60.91
33153;BME280;19509;43.862;26.176;2022-08-21T01:14:11;100038.47;;;23.70;61.43
33153;BME280;19509;43.862;26.176;2022-08-21T01:16:39;100039.06;;;23.67;61.34
33153;BME280;19509;43.862;26.176;2022-08-21T01:19:07;100041.81;;;23.67;61.49
33153;BME280;19509;43.862;26.176;2022-08-21T01:21:33;100036.47;;;23.62;61.77
33153;BME280;19509;43.862;26.176;2022-08-21T01:23:59;100022.34;;;23.55;61.97
33153;BME280;19509;43.862;26.176;2022-08-21T01:26:29;100024.16;;;23.59;62.26
33153;BME280;19509;43.862;26.176;2022-08-21T01:29:05;100023.66;;;23.57;62.33
33153;BME280;19509;43.862;26.176;2022-08-21T01:31:33;100021.66;;;23.49;62.77
33153;BME280;19509;43.862;26.176;2022-08-21T01:33:58;100019.41;;;23.51;62.73
33153;BME280;19509;43.862;26.176;2022-08-21T01:36:25;100013.91;;;23.51;62.76
33153;BME280;19509;43.862;26.176;2022-08-21T01:38:50;100015.34;;;23.49;62.87
33153;BME280;19509;43.862;26.176;2022-08-21T01:41:16;100015.34;;;23.49;62.95
33153;BME280;19509;43.862;26.176;2022-08-21T01:43:42;100007.97;;;23.35;63.45
33153;BME280;19509;43.862;26.176;2022-08-21T01:46:09;100009.56;;;23.36;63.42
33153;BME280;19509;43.862;26.176;2022-08-21T01:48:35;100007.25;;;23.30;63.72
33153;BME280;19509;43.862;26.176;2022-08-21T01:51:01;100015.84;;;23.14;64.23
33153;BME280;19509;43.862;26.176;2022-08-21T01:53:26;100008.84;;;23.08;64.55
33153;BME280;19509;43.862;26.176;2022-08-21T01:55:52;100012.38;;;23.09;64.66
33153;BME280;19509;43.862;26.176;2022-08-21T01:58:18;100008.41;;;23.15;64.70
33153;BME280;19509;43.862;26.176;2022-08-21T02:00:44;100015.56;;;23.02;64.85
33153;BME280;19509;43.862;26.176;2022-08-21T02:03:09;99999.09;;;23.02;64.90
33153;BME280;19509;43.862;26.176;2022-08-21T02:05:34;100002.84;;;22.93;65.40
33153;BME280;19509;43.862;26.176;2022-08-21T02:08:00;100002.25;;;22.54;66.51
33153;BME280;19509;43.862;26.176;2022-08-21T02:10:29;100000.50;;;22.44;66.74
33153;BME280;19509;43.862;26.176;2022-08-21T02:12:56;100008.53;;;22.55;66.77
33153;BME280;19509;43.862;26.176;2022-08-21T02:15:22;100000.09;;;22.51;66.75
33153;BME280;19509;43.862;26.176;2022-08-21T02:17:54;100010.44;;;22.27;67.62
33153;BME280;19509;43.862;26.176;2022-08-21T02:20:25;100007.72;;;22.27;67.62
33153;BME280;19509;43.862;26.176;2022-08-21T02:22:51;100008.41;;;22.18;67.92
33153;BME280;19509;43.862;26.176;2022-08-21T02:25:17;100019.06;;;22.20;67.92
33153;BME280;19509;43.862;26.176;2022-08-21T02:27:44;100019.97;;;22.15;67.88
33153;BME280;19509;43.862;26.176;2022-08-21T02:30:16;100014.50;;;22.15;68.13
33153;BME280;19509;43.862;26.176;2022-08-21T02:32:42;100015.31;;;22.16;68.20
33153;BME280;19509;43.862;26.176;2022-08-21T02:35:09;100012.78;;;22.19;67.90
33153;BME280;19509;43.862;26.176;2022-08-21T02:37:48;100015.44;;;22.06;68.30
33153;BME280;19509;43.862;26.176;2022-08-21T02:40:16;99996.53;;;21.90;68.42
33153;BME280;19509;43.862;26.176;2022-08-21T02:42:42;100006.56;;;21.81;68.76
33153;BME280;19509;43.862;26.176;2022-08-21T02:45:09;100002.19;;;21.80;68.90
33153;BME280;19509;43.862;26.176;2022-08-21T02:47:35;99995.03;;;21.65;69.37
33153;BME280;19509;43.862;26.176;2022-08-21T02:50:00;99987.63;;;21.66;69.33
33153;BME280;19509;43.862;26.176;2022-08-21T02:52:26;99999.00;;;21.73;68.96
33153;BME280;19509;43.862;26.176;2022-08-21T02:54:51;99997.34;;;21.39;69.99
33153;BME280;19509;43.862;26.176;2022-08-21T02:57:17;99989.56;;;21.46;69.72
33153;BME280;19509;43.862;26.176;2022-08-21T02:59:42;99997.19;;;21.49;69.70
33153;BME280;19509;43.862;26.176;2022-08-21T03:02:08;99995.94;;;21.42;69.93
33153;BME280;19509;43.862;26.176;2022-08-21T03:04:33;99995.72;;;21.38;70.13
33153;BME280;19509;43.862;26.176;2022-08-21T03:06:59;99981.66;;;21.45;69.80
33153;BME280;19509;43.862;26.176;2022-08-21T03:09:25;99986.66;;;21.57;69.73
33153;BME280;19509;43.862;26.176;2022-08-21T03:11:50;99995.63;;;21.62;69.26
33153;BME280;19509;43.862;26.176;2022-08-21T03:14:17;99993.00;;;21.38;70.08
33153;BME280;19509;43.862;26.176;2022-08-21T03:16:43;99984.06;;;21.09;71.01
33153;BME280;19509;43.862;26.176;2022-08-21T03:19:09;99990.94;;;20.87;72.10
33153;BME280;19509;43.862;26.176;2022-08-21T03:21:34;99988.91;;;20.74;72.54
33153;BME280;19509;43.862;26.176;2022-08-21T03:24:00;99985.28;;;20.78;72.61
33153;BME280;19509;43.862;26.176;2022-08-21T03:26:25;99982.41;;;20.70;72.00
33153;BME280;19509;43.862;26.176;2022-08-21T03:28:51;99985.19;;;20.65;71.78
33153;BME280;19509;43.862;26.176;2022-08-21T03:31:17;99995.72;;;20.52;72.38
33153;BME280;19509;43.862;26.176;2022-08-21T03:33:43;99996.66;;;20.67;71.87
33153;BME280;19509;43.862;26.176;2022-08-21T03:36:09;99986.84;;;20.66;71.69
33153;BME280;19509;43.862;26.176;2022-08-21T03:38:36;99990.25;;;20.52;72.30
33153;BME280;19509;43.862;26.176;2022-08-21T03:41:03;99982.44;;;20.41;72.53
33153;BME280;19509;43.862;26.176;2022-08-21T03:43:30;99984.56;;;20.44;72.96
33153;BME280;19509;43.862;26.176;2022-08-21T03:45:56;99979.06;;;20.49;73.30
33153;BME280;19509;43.862;26.176;2022-08-21T03:48:22;99976.28;;;20.54;73.04
33153;BME280;19509;43.862;26.176;2022-08-21T03:50:48;99980.16;;;20.72;72.61
33153;BME280;19509;43.862;26.176;2022-08-21T03:53:16;99976.53;;;21.00;71.50
33153;BME280;19509;43.862;26.176;2022-08-21T03:55:42;99975.50;;;21.15;71.28
33153;BME280;19509;43.862;26.176;2022-08-21T03:58:08;99976.34;;;21.35;70.49
33153;BME280;19509;43.862;26.176;2022-08-21T04:00:34;99977.75;;;21.51;70.14
33153;BME280;19509;43.862;26.176;2022-08-21T04:02:59;99978.13;;;21.77;68.80
33153;BME280;19509;43.862;26.176;2022-08-21T04:05:25;99984.44;;;21.78;69.08
33153;BME280;19509;43.862;26.176;2022-08-21T04:07:55;99982.44;;;21.97;68.58
33153;BME280;19509;43.862;26.176;2022-08-21T04:10:22;99984.75;;;21.90;68.83
33153;BME280;19509;43.862;26.176;2022-08-21T04:12:49;99979.06;;;21.86;69.13
33153;BME280;19509;43.862;26.176;2022-08-21T04:15:15;99983.94;;;21.89;69.04
33153;BME280;19509;43.862;26.176;2022-08-21T04:17:40;99986.75;;;21.70;69.91
33153;BME280;19509;43.862;26.176;2022-08-21T04:20:06;99997.53;;;21.81;69.89
33153;BME280;19509;43.862;26.176;2022-08-21T04:22:31;99993.31;;;22.02;69.25
33153;BME280;19509;43.862;26.176;2022-08-21T04:24:57;99996.75;;;22.08;69.04
33153;BME280;19509;43.862;26.176;2022-08-21T04:27:22;99996.94;;;22.30;68.05
33153;BME280;19509;43.862;26.176;2022-08-21T04:29:48;99999.81;;;22.39;68.12
33153;BME280;19509;43.862;26.176;2022-08-21T04:32:21;99995.03;;;22.44;68.43
33153;BME280;19509;43.862;26.176;2022-08-21T04:34:47;99997.47;;;22.60;67.47
33153;BME280;19509;43.862;26.176;2022-08-21T04:37:13;100000.63;;;22.81;67.24
33153;BME280;19509;43.862;26.176;2022-08-21T04:39:40;100000.94;;;22.79;67.10
33153;BME280;19509;43.862;26.176;2022-08-21T04:42:06;99995.84;;;23.00;66.36
33153;BME280;19509;43.862;26.176;2022-08-21T04:44:32;99999.19;;;23.11;66.17
33153;BME280;19509;43.862;26.176;2022-08-21T04:46:57;99993.28;;;23.18;65.75
33153;BME280;19509;43.862;26.176;2022-08-21T04:49:23;100011.66;;;23.31;65.29
33153;BME280;19509;43.862;26.176;2022-08-21T04:52:01;100006.13;;;23.45;64.97
33153;BME280;19509;43.862;26.176;2022-08-21T04:54:27;100014.31;;;23.58;64.68
33153;BME280;19509;43.862;26.176;2022-08-21T04:57:02;100023.31;;;23.73;63.70
33153;BME280;19509;43.862;26.176;2022-08-21T04:59:37;100039.97;;;23.40;64.92
33153;BME280;19509;43.862;26.176;2022-08-21T05:02:05;100038.69;;;23.37;65.29
33153;BME280;19509;43.862;26.176;2022-08-21T05:04:32;100025.91;;;23.55;65.09
33153;BME280;19509;43.862;26.176;2022-08-21T05:07:02;100030.13;;;23.75;64.42
33153;BME280;19509;43.862;26.176;2022-08-21T05:09:29;100035.50;;;24.03;63.47
33153;BME280;19509;43.862;26.176;2022-08-21T05:11:55;100036.63;;;24.02;63.49
33153;BME280;19509;43.862;26.176;2022-08-21T05:14:21;100037.28;;;24.07;63.36
33153;BME280;19509;43.862;26.176;2022-08-21T05:16:46;100037.34;;;24.16;63.17
33153;BME280;19509;43.862;26.176;2022-08-21T05:19:12;100033.56;;;24.35;61.73
33153;BME280;19509;43.862;26.176;2022-08-21T05:21:40;100040.53;;;24.32;61.85
33153;BME280;19509;43.862;26.176;2022-08-21T05:24:06;100035.09;;;24.41;61.99
33153;BME280;19509;43.862;26.176;2022-08-21T05:26:32;100043.13;;;24.37;61.97
33153;BME280;19509;43.862;26.176;2022-08-21T05:28:58;100042.44;;;24.54;61.70
33153;BME280;19509;43.862;26.176;2022-08-21T05:31:24;100039.72;;;24.63;60.88
33153;BME280;19509;43.862;26.176;2022-08-21T05:33:49;100042.88;;;24.87;60.66
33153;BME280;19509;43.862;26.176;2022-08-21T05:36:16;100051.59;;;25.20;59.55
33153;BME280;19509;43.862;26.176;2022-08-21T05:38:42;100038.31;;;25.31;59.42
33153;BME280;19509;43.862;26.176;2022-08-21T05:41:08;100048.03;;;25.29;59.40
33153;BME280;19509;43.862;26.176;2022-08-21T05:43:34;100053.53;;;25.37;59.14
33153;BME280;19509;43.862;26.176;2022-08-21T05:46:02;100049.66;;;25.38;58.96
33153;BME280;19509;43.862;26.176;2022-08-21T05:48:28;100050.94;;;25.49;58.79
33153;BME280;19509;43.862;26.176;2022-08-21T05:50:53;100045.44;;;25.49;58.70
33153;BME280;19509;43.862;26.176;2022-08-21T05:53:20;100057.28;;;25.41;58.32
33153;BME280;19509;43.862;26.176;2022-08-21T05:55:47;100060.81;;;25.33;58.67
33153;BME280;19509;43.862;26.176;2022-08-21T05:58:15;100058.25;;;25.45;58.38
33153;BME280;19509;43.862;26.176;2022-08-21T06:00:41;100048.06;;;25.55;57.96
33153;BME280;19509;43.862;26.176;2022-08-21T06:03:12;100044.66;;;25.75;57.39
33153;BME280;19509;43.862;26.176;2022-08-21T06:05:38;100050.47;;;25.91;56.97
33153;BME280;19509;43.862;26.176;2022-08-21T06:08:04;100053.41;;;25.94;56.88
33153;BME280;19509;43.862;26.176;2022-08-21T06:10:30;100053.72;;;25.84;56.88
33153;BME280;19509;43.862;26.176;2022-08-21T06:12:56;100055.34;;;25.94;56.37
33153;BME280;19509;43.862;26.176;2022-08-21T06:15:21;100055.81;;;26.05;56.01
33153;BME280;19509;43.862;26.176;2022-08-21T06:17:47;100051.09;;;26.14;55.80
33153;BME280;19509;43.862;26.176;2022-08-21T06:20:12;100054.78;;;26.35;55.27
33153;BME280;19509;43.862;26.176;2022-08-21T06:22:38;100053.78;;;26.49;54.88
33153;BME280;19509;43.862;26.176;2022-08-21T06:25:03;100058.94;;;26.59;53.91
33153;BME280;19509;43.862;26.176;2022-08-21T06:27:29;100061.69;;;26.68;54.18
33153;BME280;19509;43.862;26.176;2022-08-21T06:29:55;100057.88;;;26.81;53.53
33153;BME280;19509;43.862;26.176;2022-08-21T06:32:22;100061.59;;;26.85;53.43
33153;BME280;19509;43.862;26.176;2022-08-21T06:34:48;100058.47;;;26.57;54.10
33153;BME280;19509;43.862;26.176;2022-08-21T06:37:14;100055.50;;;26.71;54.06
33153;BME280;19509;43.862;26.176;2022-08-21T06:39:39;100063.72;;;26.79;53.11
33153;BME280;19509;43.862;26.176;2022-08-21T06:42:05;100059.47;;;26.91;52.98
33153;BME280;19509;43.862;26.176;2022-08-21T06:44:30;100068.28;;;27.13;52.84
33153;BME280;19509;43.862;26.176;2022-08-21T06:46:56;100063.75;;;27.18;51.99
33153;BME280;19509;43.862;26.176;2022-08-21T06:49:22;100064.72;;;27.13;52.80
33153;BME280;19509;43.862;26.176;2022-08-21T06:51:47;100060.97;;;27.09;52.43
33153;BME280;19509;43.862;26.176;2022-08-21T06:54:13;100061.56;;;27.23;52.66
33153;BME280;19509;43.862;26.176;2022-08-21T06:56:38;100056.94;;;27.36;52.05
33153;BME280;19509;43.862;26.176;2022-08-21T06:59:04;100063.09;;;27.42;51.63
33153;BME280;19509;43.862;26.176;2022-08-21T07:01:31;100068.00;;;27.57;51.22
33153;BME280;19509;43.862;26.176;2022-08-21T07:03:57;100063.69;;;27.47;50.42
33153;BME280;19509;43.862;26.176;2022-08-21T07:06:23;100062.06;;;27.46;50.93
33153;BME280;19509;43.862;26.176;2022-08-21T07:08:48;100054.41;;;27.52;50.90
33153;BME280;19509;43.862;26.176;2022-08-21T07:11:20;100057.28;;;27.55;50.73
33153;BME280;19509;43.862;26.176;2022-08-21T07:13:47;100054.31;;;27.60;50.61
33153;BME280;19509;43.862;26.176;2022-08-21T07:16:13;100053.66;;;27.85;50.74
33153;BME280;19509;43.862;26.176;2022-08-21T07:18:39;100057.41;;;28.01;49.88
33153;BME280;19509;43.862;26.176;2022-08-21T07:21:05;100053.41;;;28.11;49.88
33153;BME280;19509;43.862;26.176;2022-08-21T07:23:36;100055.47;;;28.14;50.03
33153;BME280;19509;43.862;26.176;2022-08-21T07:26:03;100043.88;;;28.33;49.02
33153;BME280;19509;43.862;26.176;2022-08-21T07:28:29;100050.06;;;28.50;49.09
33153;BME280;19509;43.862;26.176;2022-08-21T07:30:57;100049.38;;;28.66;48.31
33153;BME280;19509;43.862;26.176;2022-08-21T07:33:24;100048.56;;;28.65;47.82
33153;BME280;19509;43.862;26.176;2022-08-21T07:35:50;100038.94;;;28.38;48.30
33153;BME280;19509;43.862;26.176;2022-08-21T07:38:16;100034.84;;;28.44;48.11
33153;BME280;19509;43.862;26.176;2022-08-21T07:40:43;100037.97;;;28.67;47.72
33153;BME280;19509;43.862;26.176;2022-08-21T07:43:08;100039.22;;;28.82;47.35
33153;BME280;19509;43.862;26.176;2022-08-21T07:45:34;100036.81;;;28.68;46.76
33153;BME280;19509;43.862;26.176;2022-08-21T07:48:00;100023.88;;;28.48;47.31
33153;BME280;19509;43.862;26.176;2022-08-21T07:50:25;100022.16;;;28.56;47.62
33153;BME280;19509;43.862;26.176;2022-08-21T07:52:51;100018.22;;;28.57;48.11
33153;BME280;19509;43.862;26.176;2022-08-21T07:55:19;100016.50;;;28.89;47.00
33153;BME280;19509;43.862;26.176;2022-08-21T07:57:45;100020.22;;;28.81;46.97
33153;BME280;19509;43.862;26.176;2022-08-21T08:00:15;100022.50;;;29.03;46.84
33153;BME280;19509;43.862;26.176;2022-08-21T08:02:44;100011.44;;;29.03;46.27
33153;BME280;19509;43.862;26.176;2022-08-21T08:05:11;100013.94;;;29.20;45.96
33153;BME280;19509;43.862;26.176;2022-08-21T08:07:36;100013.47;;;28.94;46.71
33153;BME280;19509;43.862;26.176;2022-08-21T08:10:04;100007.00;;;29.14;46.29
33153;BME280;19509;43.862;26.176;2022-08-21T08:12:31;99995.59;;;29.28;46.00
33153;BME280;19509;43.862;26.176;2022-08-21T08:14:58;99996.22;;;29.37;45.37
33153;BME280;19509;43.862;26.176;2022-08-21T08:17:24;99995.78;;;29.35;45.46
33153;BME280;19509;43.862;26.176;2022-08-21T08:19:49;99994.22;;;29.62;44.34
33153;BME280;19509;43.862;26.176;2022-08-21T08:22:17;99992.69;;;29.65;44.91
33153;BME280;19509;43.862;26.176;2022-08-21T08:24:45;99984.41;;;29.81;44.23
33153;BME280;19509;43.862;26.176;2022-08-21T08:27:11;99991.31;;;29.87;44.66
33153;BME280;19509;43.862;26.176;2022-08-21T08:29:37;99982.94;;;30.15;43.76
33153;BME280;19509;43.862;26.176;2022-08-21T08:32:04;99986.56;;;30.47;43.31
33153;BME280;19509;43.862;26.176;2022-08-21T08:34:29;99976.03;;;30.09;43.16
33153;BME280;19509;43.862;26.176;2022-08-21T08:36:55;99982.06;;;30.43;43.77
33153;BME280;19509;43.862;26.176;2022-08-21T08:39:23;99978.50;;;30.58;42.81
33153;BME280;19509;43.862;26.176;2022-08-21T08:41:48;99976.31;;;30.67;42.72
33153;BME280;19509;43.862;26.176;2022-08-21T08:44:16;99980.19;;;30.62;41.68
33153;BME280;19509;43.862;26.176;2022-08-21T08:46:47;99973.66;;;30.39;41.60
33153;BME280;19509;43.862;26.176;2022-08-21T08:49:20;99968.16;;;29.79;42.23
33153;BME280;19509;43.862;26.176;2022-08-21T08:51:55;99967.31;;;29.79;42.75
33153;BME280;19509;43.862;26.176;2022-08-21T08:54:30;99960.63;;;29.80;42.95
33153;BME280;19509;43.862;26.176;2022-08-21T08:57:00;99958.38;;;29.69;42.51
33153;BME280;19509;43.862;26.176;2022-08-21T08:59:36;99959.13;;;29.98;42.68
33153;BME280;19509;43.862;26.176;2022-08-21T09:02:04;99953.00;;;30.21;42.56
33153;BME280;19509;43.862;26.176;2022-08-21T09:04:31;99948.34;;;30.40;41.81
33153;BME280;19509;43.862;26.176;2022-08-21T09:07:16;99954.94;;;30.52;41.36
33153;BME280;19509;43.862;26.176;2022-08-21T09:12:38;99939.53;;;30.07;41.74
33153;BME280;19509;43.862;26.176;2022-08-21T09:15:12;99940.19;;;30.48;41.48
33153;BME280;19509;43.862;26.176;2022-08-21T09:17:46;99943.41;;;30.34;42.51
33153;BME280;19509;43.862;26.176;2022-08-21T09:20:21;99934.25;;;30.81;40.96
33153;BME280;19509;43.862;26.176;2022-08-21T09:26:00;99922.88;;;30.54;40.05
33153;BME280;19509;43.862;26.176;2022-08-21T09:28:31;99926.47;;;30.55;41.29
33153;BME280;19509;43.862;26.176;2022-08-21T09:30:58;99916.00;;;30.83;39.81
33153;BME280;19509;43.862;26.176;2022-08-21T09:33:28;99912.63;;;30.74;39.79
33153;BME280;19509;43.862;26.176;2022-08-21T09:35:55;99914.09;;;30.52;40.99
33153;BME280;19509;43.862;26.176;2022-08-21T09:38:35;99909.00;;;30.54;40.83
33153;BME280;19509;43.862;26.176;2022-08-21T09:41:09;99911.88;;;29.94;40.90
33153;BME280;19509;43.862;26.176;2022-08-21T09:43:37;99906.06;;;30.00;40.87
33153;BME280;19509;43.862;26.176;2022-08-21T09:48:43;99893.38;;;30.81;39.92
33153;BME280;19509;43.862;26.176;2022-08-21T09:51:20;99898.41;;;31.15;39.09
33153;BME280;19509;43.862;26.176;2022-08-21T09:53:51;99892.56;;;30.81;38.64
33153;BME280;19509;43.862;26.176;2022-08-21T09:56:25;99885.50;;;30.68;39.37
33153;BME280;19509;43.862;26.176;2022-08-21T09:59:31;99886.25;;;30.84;39.60
33153;BME280;19509;43.862;26.176;2022-08-21T10:02:00;99889.34;;;31.18;38.55
33153;BME280;19509;43.862;26.176;2022-08-21T10:04:32;99887.22;;;31.30;37.98
33153;BME280;19509;43.862;26.176;2022-08-21T10:07:13;99879.13;;;31.41;37.98
33153;BME280;19509;43.862;26.176;2022-08-21T10:09:40;99873.53;;;31.61;37.35
33153;BME280;19509;43.862;26.176;2022-08-21T10:18:24;99859.59;;;31.38;37.63
33153;BME280;19509;43.862;26.176;2022-08-21T10:20:54;99860.66;;;31.52;37.93
33153;BME280;19509;43.862;26.176;2022-08-21T10:31:21;99857.09;;;31.13;37.42
33153;BME280;19509;43.862;26.176;2022-08-21T10:37:23;99864.91;;;30.33;40.87
33153;BME280;19509;43.862;26.176;2022-08-21T10:42:38;99860.50;;;29.85;41.99
33153;BME280;19509;43.862;26.176;2022-08-21T10:47:45;99854.63;;;29.86;41.77
33153;BME280;19509;43.862;26.176;2022-08-21T10:53:13;99847.97;;;30.07;42.54
33153;BME280;19509;43.862;26.176;2022-08-21T10:55:50;99847.53;;;30.21;41.32
33153;BME280;19509;43.862;26.176;2022-08-21T10:58:40;99851.00;;;30.17;41.30
33153;BME280;19509;43.862;26.176;2022-08-21T11:01:18;99844.75;;;30.05;42.34
33153;BME280;19509;43.862;26.176;2022-08-21T11:03:51;99837.69;;;30.23;41.78
33153;BME280;19509;43.862;26.176;2022-08-21T11:06:27;99839.81;;;30.30;41.51
33153;BME280;19509;43.862;26.176;2022-08-21T11:09:12;99829.25;;;30.35;40.91
33153;BME280;19509;43.862;26.176;2022-08-21T11:12:06;99826.28;;;30.44;41.12
33153;BME280;19509;43.862;26.176;2022-08-21T11:14:49;99825.25;;;30.52;41.11
33153;BME280;19509;43.862;26.176;2022-08-21T11:17:22;99826.28;;;30.63;39.38
33153;BME280;19509;43.862;26.176;2022-08-21T11:20:13;99820.66;;;30.60;40.43
33153;BME280;19509;43.862;26.176;2022-08-21T11:22:51;99822.63;;;30.59;40.46
33153;BME280;19509;43.862;26.176;2022-08-21T11:25:23;99814.03;;;30.64;40.17
33153;BME280;19509;43.862;26.176;2022-08-21T11:27:56;99794.59;;;30.84;40.23
33153;BME280;19509;43.862;26.176;2022-08-21T11:30:41;99798.69;;;30.90;39.87
33153;BME280;19509;43.862;26.176;2022-08-21T11:41:34;99774.75;;;31.47;38.41
33153;BME280;19509;43.862;26.176;2022-08-21T11:52:22;99749.00;;;33.31;33.30
33153;BME280;19509;43.862;26.176;2022-08-21T11:55:08;99744.53;;;33.19;33.76
33153;BME280;19509;43.862;26.176;2022-08-21T11:57:53;99745.16;;;33.43;33.09
33153;BME280;19509;43.862;26.176;2022-08-21T12:00:27;99739.56;;;32.99;34.47
33153;BME280;19509;43.862;26.176;2022-08-21T12:02:58;99741.19;;;32.69;34.64
33153;BME280;19509;43.862;26.176;2022-08-21T12:05:42;99740.53;;;32.19;35.33
33153;BME280;19509;43.862;26.176;2022-08-21T12:10:46;99732.75;;;32.32;35.13
33153;BME280;19509;43.862;26.176;2022-08-21T12:13:27;99726.63;;;31.43;37.00
33153;BME280;19509;43.862;26.176;2022-08-21T12:16:12;99730.28;;;31.47;37.57
33153;BME280;19509;43.862;26.176;2022-08-21T12:18:38;99725.72;;;31.36;36.54
33153;BME280;19509;43.862;26.176;2022-08-21T12:23:47;99721.63;;;31.29;36.85
33153;BME280;19509;43.862;26.176;2022-08-21T12:28:40;99714.88;;;31.30;35.35
33153;BME280;19509;43.862;26.176;2022-08-21T12:31:20;99714.38;;;31.48;34.77
33153;BME280;19509;43.862;26.176;2022-08-21T12:34:01;99712.91;;;31.54;34.55
33153;BME280;19509;43.862;26.176;2022-08-21T12:36:45;99705.75;;;31.79;33.59
33153;BME280;19509;43.862;26.176;2022-08-21T12:39:19;99699.50;;;31.60;33.52
33153;BME280;19509;43.862;26.176;2022-08-21T12:41:51;99706.78;;;31.94;33.80
33153;BME280;19509;43.862;26.176;2022-08-21T12:44:27;99701.28;;;32.28;33.72
33153;BME280;19509;43.862;26.176;2022-08-21T12:46:58;99700.28;;;32.13;32.43
33153;BME280;19509;43.862;26.176;2022-08-21T12:49:30;99688.88;;;32.52;32.79
33153;BME280;19509;43.862;26.176;2022-08-21T12:52:14;99679.41;;;32.30;32.81
33153;BME280;19509;43.862;26.176;2022-08-21T12:54:44;99676.44;;;32.46;33.91
33153;BME280;19509;43.862;26.176;2022-08-21T12:57:27;99680.56;;;32.25;32.93
33153;BME280;19509;43.862;26.176;2022-08-21T12:59:57;99683.03;;;32.31;33.42
33153;BME280;19509;43.862;26.176;2022-08-21T13:02:30;99672.81;;;32.12;32.69
33153;BME280;19509;43.862;26.176;2022-08-21T13:04:57;99673.88;;;32.00;33.29
33153;BME280;19509;43.862;26.176;2022-08-21T13:07:31;99684.72;;;32.09;34.25
33153;BME280;19509;43.862;26.176;2022-08-21T13:10:06;99690.22;;;32.05;35.30
33153;BME280;19509;43.862;26.176;2022-08-21T13:12:33;99686.66;;;32.04;33.43
33153;BME280;19509;43.862;26.176;2022-08-21T13:15:03;99686.97;;;31.73;36.55
33153;BME280;19509;43.862;26.176;2022-08-21T13:17:31;99707.19;;;31.43;38.28
33153;BME280;19509;43.862;26.176;2022-08-21T13:19:59;99704.13;;;31.29;39.13
33153;BME280;19509;43.862;26.176;2022-08-21T13:22:26;99711.22;;;31.03;40.63
33153;BME280;19509;43.862;26.176;2022-08-21T13:24:53;99711.94;;;30.77;40.59
33153;BME280;19509;43.862;26.176;2022-08-21T13:27:28;99710.47;;;30.45;41.74
33153;BME280;19509;43.862;26.176;2022-08-21T13:30:12;99715.13;;;30.21;42.17
33153;BME280;19509;43.862;26.176;2022-08-21T13:32:42;99712.97;;;30.14;41.94
33153;BME280;19509;43.862;26.176;2022-08-21T13:35:13;99708.28;;;29.99;42.56
33153;BME280;19509;43.862;26.176;2022-08-21T13:37:42;99708.50;;;29.90;42.70
33153;BME280;19509;43.862;26.176;2022-08-21T13:40:22;99700.72;;;29.80;42.33
33153;BME280;19509;43.862;26.176;2022-08-21T13:42:49;99714.06;;;29.59;41.79
33153;BME280;19509;43.862;26.176;2022-08-21T13:45:21;99707.66;;;29.39;42.00
33153;BME280;19509;43.862;26.176;2022-08-21T13:47:47;99716.75;;;29.08;41.83
33153;BME280;19509;43.862;26.176;2022-08-21T13:50:15;99713.47;;;28.90;42.34
33153;BME280;19509;43.862;26.176;2022-08-21T13:52:49;99710.31;;;28.75;42.48